Latest Weather Observations for Lake Macquarie - Cooranbong

IDN60801

Issued at 11:35 am EST Friday 1 August 2014 (issued every 30 minutes, with the page automatically refreshed every 10 minutes)

About weather observations | Map of weather stations | Latest weather observations for NSW | Other Formats
Station Details ID: 061412 Name: LAKE MACQUARIE AWS Lat: -33.09 Lon: 151.46 Height: 6.0 m
Data from the previous 72 hours. | See also: Recent months at Lake Macquarie - Cooranbong
Date/Time
EST
Temp
°C
App
Temp
°C
Dew
Point
Rel
Hum
%
Delta-T
°C
Wind Press
QNH
hPa
Press
MSL
hPa
Rain
since 9 am
mm
Dir
 
Spd
km/h
Gust
km/h
Spd
kts
Gust
kts
01/11:30am 19.8 14.7 3.1 33 7.8 W 19 28 10 15 1008.1 - 0.0
01/11:00am 19.3 14.4 2.2 32 7.9 W 17 33 9 18 1008.1 1008.1 0.0
01/10:30am 19.5 14.9 1.5 30 8.2 WNW 15 26 8 14 1008.1 - 0.0
01/10:00am 19.1 14.3 0.2 28 8.3 W 15 30 8 16 1008.2 1008.2 0.0
01/09:30am 18.8 17.3 3.0 35 7.3 CALM 0 0 0 0 1008.0 - 0.0
01/09:00am 15.5 13.9 6.5 55 4.4 SW 4 7 2 4 1007.8 1007.8 0.0
01/08:30am 11.7 11.0 7.0 73 2.2 CALM 0 0 0 0 1007.5 - 0.0
01/08:00am 8.0 7.0 5.8 86 1.0 CALM 0 0 0 0 1007.3 1007.3 0.0
01/07:30am 6.4 4.9 3.2 80 1.3 CALM 0 4 0 2 1007.1 - 0.0
01/07:00am 5.7 3.8 2.9 82 1.2 NE 2 4 1 2 1007.0 1007.0 0.0
01/06:30am 5.7 4.1 2.7 81 1.2 CALM 0 0 0 0 1006.7 - 0.0
01/06:00am 6.2 4.7 3.0 80 1.3 W 0 4 0 2 1006.2 1006.2 0.0
01/05:30am 6.2 4.8 3.4 82 1.2 CALM 0 0 0 0 1005.9 - 0.0
01/05:00am 6.3 4.9 3.5 82 1.2 CALM 0 0 0 0 1006.0 1006.0 0.0
01/04:30am 6.2 4.6 2.5 77 1.5 CALM 0 0 0 0 1006.1 - 0.0
01/04:00am 7.3 5.5 3.4 76 1.7 NNE 2 6 1 3 1006.2 1006.2 0.0
01/03:30am 6.8 4.6 3.2 78 1.5 NNE 4 7 2 4 1006.7 - 0.0
01/03:00am 7.1 5.6 2.8 74 1.8 CALM 0 0 0 0 1007.1 1007.1 0.0
01/02:30am 7.0 5.0 2.5 73 1.9 WNW 2 4 1 2 1007.6 - 0.0
01/02:00am 8.0 5.8 3.1 71 2.1 NW 4 13 2 7 1007.5 1007.5 0.0
01/01:30am 8.1 6.3 3.4 72 2.0 NW 2 9 1 5 1007.7 - 0.0
01/01:00am 8.6 7.2 3.6 71 2.2 CALM 0 0 0 0 1007.9 1007.9 0.0
01/12:30am 10.6 8.4 3.6 62 3.1 WNW 4 6 2 3 1008.0 - 0.0
01/12:00am 12.1 9.8 2.6 52 4.1 N 4 9 2 5 1008.2 1008.2 0.0
 
Date/Time
EST
Temp
°C
App
Temp
°C
Dew
Point
Rel
Hum
%
Delta-T
°C
Wind Press
QNH
hPa
Press
MSL
hPa
Rain
since 9 am
mm
Dir
 
Spd
km/h
Gust
km/h
Spd
kts
Gust
kts
31/11:30pm 15.1 12.2 1.3 39 6.0 N 6 9 3 5 1008.3 - 0.0
31/11:00pm 13.0 10.1 1.7 46 4.9 N 6 9 3 5 1008.6 1008.6 0.0
31/10:30pm 14.1 11.5 1.1 41 5.6 N 4 7 2 4 1008.9 - 0.0
31/10:00pm 16.1 13.1 0.7 35 6.7 NNE 6 7 3 4 1009.0 1009.0 0.0
31/09:30pm 16.9 13.3 0.5 33 7.1 N 9 15 5 8 1009.0 - 0.0
31/09:00pm 17.9 13.9 0.6 31 7.6 N 11 20 6 11 1009.1 1009.1 0.0
31/08:30pm 18.8 14.0 0.4 29 8.1 N 15 20 8 11 1009.1 - 0.0
31/08:00pm 19.1 14.4 0.7 29 8.2 N 15 22 8 12 1009.1 1009.1 0.0
31/07:30pm 19.2 14.9 1.2 30 8.1 N 13 28 7 15 1009.3 - 0.0
31/07:00pm 18.9 15.0 1.4 31 7.9 N 11 19 6 10 1009.3 1009.3 0.0
31/06:30pm 19.6 15.7 1.1 29 8.3 N 11 22 6 12 1009.4 - 0.0
31/06:00pm 19.0 15.5 1.5 31 7.9 N 9 17 5 9 1009.1 1009.1 0.0
31/05:30pm 19.0 15.6 2.0 32 7.7 N 9 15 5 8 1008.9 - 0.0
31/05:00pm 20.1 16.7 2.0 30 8.3 N 9 15 5 8 1009.0 1009.0 0.0
31/04:30pm 21.8 18.0 1.5 26 9.4 N 11 24 6 13 1009.0 - 0.0
31/04:00pm 23.1 19.3 1.5 24 10.1 N 11 26 6 14 1009.2 1009.2 0.0
31/03:30pm 23.7 19.0 0.7 22 10.6 NNW 15 28 8 15 1009.4 - 0.0
31/03:00pm 23.7 19.1 1.4 23 10.4 NNW 15 35 8 19 1009.7 1009.7 0.0
31/02:30pm 23.7 18.1 1.4 23 10.4 N 20 39 11 21 1009.9 - 0.0
31/02:00pm 23.8 19.1 0.8 22 10.7 NNW 15 30 8 16 1010.3 1010.3 0.0
31/01:30pm 23.6 17.5 0.7 22 10.6 NW 22 39 12 21 1010.8 - 0.0
31/01:00pm 23.4 18.0 2.3 25 10.0 NNW 20 35 11 19 1011.5 1011.5 0.0
31/12:30pm 22.9 18.1 2.4 26 9.7 NNW 17 30 9 16 1012.1 - 0.0
31/12:00pm 22.7 18.5 3.8 29 9.2 NNW 15 30 8 16 1013.0 1013.0 0.0
31/11:30am 21.5 16.1 2.2 28 9.0 NW 20 35 11 19 1013.8 - 0.0
31/11:00am 21.7 18.0 2.4 28 9.1 NNW 11 22 6 12 1014.6 1014.6 0.0
31/10:30am 20.9 16.5 2.7 30 8.5 N 15 33 8 18 1015.0 - 0.0
31/10:00am 20.2 15.7 2.1 30 8.3 NNW 15 28 8 15 1015.4 1015.4 0.0
31/09:30am 19.6 15.2 2.5 32 7.9 N 15 33 8 18 1015.8 - 0.0
31/09:00am 18.7 14.1 3.7 37 7.0 N 17 24 9 13 1016.0 1016.0 0.0
31/08:30am 17.9 14.8 3.4 38 6.7 N 9 24 5 13 1016.2 - 0.0
31/08:00am 16.5 13.6 4.9 46 5.5 N 9 13 5 7 1016.2 1016.2 0.0
31/07:30am 12.9 10.6 4.8 58 3.7 N 6 9 3 5 1016.2 - 0.0
31/07:00am 11.7 9.2 4.9 63 3.1 N 7 13 4 7 1016.3 1016.3 0.0
31/06:38am 11.0 9.4 8.8 86 1.1 N 7 13 4 7 1016.3 - 0.0
31/06:30am 6.0 3.8 5.4 96 0.3 N 6 7 3 4 1016.3 - 0.0
31/06:00am 5.2 3.7 4.8 97 0.2 N 2 6 1 3 1016.1 1016.1 0.0
31/05:30am 4.8 3.6 4.4 97 0.2 CALM 0 4 0 2 1016.0 - 0.0
31/05:00am 4.3 2.9 3.7 96 0.2 CALM 0 0 0 0 1015.9 1015.9 0.0
31/04:30am 3.9 2.4 3.2 95 0.3 CALM 0 0 0 0 1015.8 - 0.0
31/04:00am 4.2 2.8 3.6 96 0.2 CALM 0 0 0 0 1016.0 1016.0 0.0
31/03:30am 4.4 3.0 3.7 95 0.3 CALM 0 0 0 0 1016.1 - 0.0
31/03:00am 4.7 3.4 4.0 95 0.3 CALM 0 0 0 0 1016.4 1016.4 0.0
31/02:30am 5.1 3.9 4.4 95 0.3 CALM 0 0 0 0 1016.5 - 0.0
31/02:00am 5.4 4.2 4.7 95 0.3 CALM 0 0 0 0 1016.8 1016.8 0.0
31/01:30am 5.7 4.6 5.0 95 0.3 CALM 0 0 0 0 1017.0 - 0.0
31/01:00am 5.8 4.7 5.1 95 0.3 CALM 0 0 0 0 1017.3 1017.3 0.0
31/12:30am 6.5 5.5 5.6 94 0.4 CALM 0 0 0 0 1017.5 - 0.0
31/12:00am 6.7 5.7 5.7 93 0.4 CALM 0 0 0 0 1017.9 1017.9 0.0
 
Date/Time
EST
Temp
°C
App
Temp
°C
Dew
Point
Rel
Hum
%
Delta-T
°C
Wind Press
QNH
hPa
Press
MSL
hPa
Rain
since 9 am
mm
Dir
 
Spd
km/h
Gust
km/h
Spd
kts
Gust
kts
30/11:30pm 7.3 6.5 6.4 94 0.4 CALM 0 0 0 0 1018.1 - 0.0
30/11:00pm 7.7 7.0 6.8 94 0.4 CALM 0 0 0 0 1018.3 1018.3 0.0
30/10:30pm 7.9 7.1 6.7 92 0.6 CALM 0 0 0 0 1018.5 - 0.0
30/10:00pm 7.8 7.0 6.4 91 0.6 CALM 0 0 0 0 1018.7 1018.7 0.0
30/09:30pm 8.9 8.3 7.5 91 0.7 CALM 0 0 0 0 1018.8 - 0.0
30/09:00pm 9.1 8.6 7.7 91 0.7 CALM 0 0 0 0 1018.8 1018.8 0.0
30/08:30pm 9.7 9.1 7.6 87 1.0 CALM 0 0 0 0 1018.8 - 0.0
30/08:00pm 10.7 10.3 8.3 85 1.2 CALM 0 0 0 0 1018.6 1018.6 0.0
30/07:30pm 11.3 10.9 8.2 81 1.5 CALM 0 0 0 0 1018.2 - 0.0
30/07:00pm 12.2 11.8 8.1 76 2.0 CALM 0 0 0 0 1017.7 1017.7 0.0
30/06:30pm 13.8 13.4 8.2 69 2.8 CALM 0 4 0 2 1017.3 - 0.0
30/06:00pm 15.6 14.9 7.1 57 4.2 CALM 0 0 0 0 1016.6 1016.6 0.0
30/05:30pm 18.6 17.5 6.8 46 5.9 W 2 4 1 2 1016.4 - 0.0
30/05:00pm 20.6 18.6 6.2 39 7.2 W 6 11 3 6 1016.2 1016.2 0.0
30/04:30pm 22.3 19.6 5.7 34 8.3 W 9 15 5 8 1015.8 - 0.0
30/04:00pm 22.9 20.2 5.8 33 8.6 WNW 9 17 5 9 1015.4 1015.4 0.0
30/03:30pm 23.0 19.9 5.4 32 8.8 WNW 11 19 6 10 1015.7 - 0.0
30/03:00pm 23.1 19.6 5.5 32 8.8 W 13 20 7 11 1015.8 1015.8 0.0
30/02:30pm 23.3 19.9 5.7 32 8.9 WNW 13 24 7 13 1015.6 - 0.0
30/02:00pm 22.9 18.0 4.9 31 8.9 WNW 20 33 11 18 1015.6 1015.6 0.0
30/01:30pm 22.7 19.6 5.6 33 8.6 NNW 11 24 6 13 1015.9 - 0.0
30/01:00pm 22.4 19.0 5.8 34 8.3 NW 13 24 7 13 1016.2 1016.2 0.0
30/12:30pm 22.0 19.5 4.6 32 8.5 NNW 7 13 4 7 1016.7 - 0.0
30/12:00pm 21.9 19.3 6.2 36 7.9 WNW 9 15 5 8 1017.0 1017.0 0.0
30/11:30am 20.9 17.3 4.9 35 7.8 WNW 13 24 7 13 1017.8 - 0.0
30/11:00am 20.3 16.3 5.1 37 7.4 NW 15 22 8 12 1018.4 1018.4 0.0
30/10:30am 20.0 16.4 4.9 37 7.3 NW 13 24 7 13 1019.3 - 0.0
30/10:00am 19.4 16.1 4.7 38 7.1 NW 11 20 6 11 1019.6 1019.6 0.0
30/09:30am 18.7 15.9 3.3 36 7.2 WNW 7 17 4 9 1019.8 - 0.0
30/09:00am 18.2 15.4 2.9 36 7.0 WNW 7 20 4 11 1019.8 1019.8 0.0
30/08:30am 17.4 15.3 3.7 40 6.4 N 4 9 2 5 1019.6 - 0.0
30/08:00am 16.3 13.6 2.7 40 6.1 NW 6 11 3 6 1019.0 1019.0 0.0
30/07:30am 15.9 12.1 2.0 39 6.2 NW 11 20 6 11 1018.8 - 0.0
30/07:00am 15.2 11.8 1.7 40 5.9 NNW 9 15 5 8 1018.4 1018.4 0.0
30/06:30am 15.2 12.3 1.4 39 6.0 NNW 6 9 3 5 1018.2 - 0.0
30/06:00am 15.8 12.4 1.9 39 6.1 N 9 17 5 9 1017.5 1017.5 0.0
30/05:30am 15.1 11.7 2.0 41 5.8 NW 9 13 5 7 1017.3 - 0.0
30/05:00am 14.9 11.9 1.8 41 5.7 NW 7 15 4 8 1017.3 1017.3 0.0
30/04:30am 15.3 11.9 1.8 40 5.9 NW 9 17 5 9 1017.3 - 0.0
30/04:00am 15.3 12.3 2.1 41 5.8 NNW 7 13 4 7 1017.4 1017.4 0.0
30/03:30am 15.8 12.5 2.2 40 6.1 WNW 9 17 5 9 1017.3 - 0.0
30/03:00am 14.8 11.9 2.4 43 5.5 NW 7 13 4 7 1017.4 1017.4 0.0
30/02:30am 14.1 11.4 2.7 46 5.1 NW 6 15 3 8 1017.4 - 0.0
30/02:00am 15.4 12.7 2.6 42 5.7 NNW 6 11 3 6 1017.3 1017.3 0.0
30/01:30am 15.8 12.9 2.6 41 5.9 NNW 7 13 4 7 1017.4 - 0.0
30/01:00am 16.7 13.0 2.3 38 6.5 NNW 11 22 6 12 1017.4 1017.4 0.0
30/12:30am 16.4 13.2 3.1 41 6.1 NW 9 17 5 9 1017.5 - 0.0
30/12:00am 16.4 12.8 3.1 41 6.1 NNW 11 20 6 11 1017.4 1017.4 0.0
 
Date/Time
EST
Temp
°C
App
Temp
°C
Dew
Point
Rel
Hum
%
Delta-T
°C
Wind Press
QNH
hPa
Press
MSL
hPa
Rain
since 9 am
mm
Dir
 
Spd
km/h
Gust
km/h
Spd
kts
Gust
kts
29/11:30pm 16.5 13.5 3.9 43 5.9 NW 9 24 5 13 1017.6 - 0.0
29/11:00pm 15.4 12.9 4.8 49 5.0 NW 7 19 4 10 1017.7 1017.7 0.0
29/10:40pm 13.0 11.3 7.5 69 2.7 NNW 6 19 3 10 1017.6 - 0.0
29/10:30pm 7.6 5.9 5.9 89 0.8 NNW 4 9 2 5 1017.7 - 0.0
29/10:00pm 7.5 6.6 6.1 91 0.6 CALM 0 4 0 2 1017.8 1017.8 0.0
29/09:30pm 7.6 6.7 6.1 90 0.7 CALM 0 0 0 0 1017.9 - 0.0
29/09:00pm 7.7 6.8 6.2 90 0.7 CALM 0 0 0 0 1017.9 1017.9 0.0
29/08:30pm 8.1 6.9 6.4 89 0.8 NNE 2 4 1 2 1017.9 - 0.0
29/08:00pm 9.0 7.9 6.8 86 1.0 N 2 4 1 2 1017.9 1017.9 0.0
29/07:30pm 9.3 7.8 6.9 85 1.1 N 4 4 2 2 1017.7 - 0.0
29/07:00pm 11.2 9.6 6.5 73 2.2 NNW 4 7 2 4 1017.6 1017.6 0.0
29/06:30pm 11.6 10.9 7.1 74 2.2 CALM 0 4 0 2 1017.7 - 0.0
29/06:00pm 11.7 10.7 7.2 74 2.2 N 2 4 1 2 1017.3 1017.3 0.0
29/05:30pm 14.2 13.0 6.3 59 3.8 NW 2 4 1 2 1016.6 - 0.0
29/05:00pm 16.7 14.9 5.3 47 5.5 N 4 6 2 3 1016.3 1016.3 0.0
29/04:30pm 20.2 17.4 3.4 33 7.9 NNW 7 15 4 8 1016.0 - 0.0
29/04:00pm 20.4 16.8 3.2 32 8.1 NNW 11 19 6 10 1015.4 1015.4 0.0
29/03:30pm 20.7 16.6 2.5 30 8.5 NNW 13 22 7 12 1015.4 - 0.0
29/03:00pm 20.9 16.2 3.2 31 8.4 N 17 26 9 14 1015.7 1015.7 0.0
29/02:30pm 21.2 17.5 2.5 29 8.8 NNW 11 19 6 10 1015.8 - 0.0
29/02:00pm 21.3 17.9 4.0 32 8.3 NNW 11 17 6 9 1016.1 1016.1 0.0
29/01:30pm 21.1 18.0 5.5 36 7.7 NNW 11 17 6 9 1016.1 - 0.0
29/01:00pm 20.4 16.6 4.0 34 7.9 NNW 13 22 7 12 1016.4 1016.4 0.0
29/12:30pm 20.0 16.2 3.7 34 7.7 NW 13 30 7 16 1016.5 - 0.0
29/12:00pm 20.2 16.2 4.7 36 7.5 NW 15 28 8 15 1017.1 1017.1 0.0

Other Formats:

Comma delimited format used in spreadsheet applications
http://www.bom.gov.au/fwo/IDN60801/IDN60801.95767.axf

JavaScript Object Notation format (JSON) in row-major order
http://www.bom.gov.au/fwo/IDN60801/IDN60801.95767.json